Terminal Aerodrome Forecast
Issued by NWS

Home | Current Version | Previous Version | Text Only | Print | Product List | Glossary On
Versions: 1 2 3 4 5 6 7 8 9 10 11 12 13 14 15 16 17 18 19 20 21 22 23 24 25 26 27 28 29 30 31 32 33 34 35 36 37
000
FTUS43 KEAX 191124
TAFMKC
TAF
KMKC 191124Z 1912/2012 VRB03KT P6SM BKN045
      TEMPO 1912/1913 6SM -RA BR SCT008 BKN040
     FM191500 03005KT P6SM VCSH OVC040
     FM192000 01006KT P6SM VCSH BKN045
     FM200100 29003KT P6SM SCT100=

USA.gov is the U.S. government's official web portal to all federal, state and local government web resources and services.